Time;durP1;ratioP1;P1;durP2;ratioP2;P2;SDS_P1;SDS_P2;PMS_P1;PMS_P2;Temp;Humidity;BMP_temperature;BMP_pressure;BME280_temperature;BME280_humidity;BME280_pressure;Samples;Min_cycle;Max_cycle;Signal;HPM_P1;HPM_P2
2022/07/19 00:02:20;;;;;;;10.40;5.82;;;;;;;;;;5061946;28;20218;-59
2022/07/19 00:04:46;;;;;;;8.05;6.10;;;;;;;;;;5044552;28;20278;-59
2022/07/19 00:07:12;;;;;;;11.93;6.13;;;;;;;;;;5045192;28;20186;-59
2022/07/19 00:09:39;;;;;;;8.30;5.95;;;;;;;;;;5069873;28;20217;-59
2022/07/19 00:12:05;;;;;;;10.48;5.72;;;;;;;;;;5068630;28;20532;-59
2022/07/19 00:14:31;;;;;;;11.13;6.22;;;;;;;;;;5045732;28;20243;-59
2022/07/19 00:16:57;;;;;;;11.77;6.82;;;;;;;;;;5037599;28;20195;-59
2022/07/19 00:19:23;;;;;;;10.25;6.82;;;;;;;;;;5057540;28;20193;-59
2022/07/19 00:21:49;;;;;;;12.65;6.97;;;;;;;;;;5051848;28;20688;-59
2022/07/19 00:24:15;;;;;;;12.18;7.63;;;;;;;;;;5049362;28;20182;-59
2022/07/19 00:26:42;;;;;;;14.60;8.10;;;;;;;;;;5052501;28;20216;-59
2022/07/19 00:29:08;;;;;;;12.00;7.72;;;;;;;;;;5024604;28;20183;-59
2022/07/19 00:31:34;;;;;;;9.77;7.03;;;;;;;;;;5064979;28;20203;-59
2022/07/19 00:34:00;;;;;;;14.50;6.60;;;;;;;;;;5070446;28;20293;-59
2022/07/19 00:36:26;;;;;;;12.57;7.22;;;;;;;;;;5052390;28;20648;-59
2022/07/19 00:38:52;;;;;;;12.38;6.63;;;;;;;;;;5064964;28;20174;-59
2022/07/19 00:41:18;;;;;;;15.27;7.20;;;;;;;;;;5055472;28;20206;-59
2022/07/19 00:43:45;;;;;;;12.38;7.00;;;;;;;;;;5061378;28;20193;-59
2022/07/19 00:46:15;;;;;;;13.60;7.18;;;;;;;;;;5060850;28;20187;-59
2022/07/19 00:48:42;;;;;;;10.10;6.82;;;;;;;;;;5066809;28;20179;-58
2022/07/19 00:51:12;;;;;;;10.95;7.03;;;;;;;;;;5054236;28;20179;-59
2022/07/19 00:53:39;;;;;;;12.15;6.72;;;;;;;;;;5047442;28;20556;-59
2022/07/19 00:56:05;;;;;;;9.40;6.60;;;;;;;;;;5046892;28;20183;-60
2022/07/19 00:58:32;;;;;;;11.15;6.50;;;;;;;;;;5066494;28;20224;-59
2022/07/19 01:00:58;;;;;;;12.43;6.80;;;;;;;;;;5063869;28;20225;-59
2022/07/19 01:03:25;;;;;;;13.73;6.25;;;;;;;;;;5073748;28;20647;-60
2022/07/19 01:05:52;;;;;;;12.95;7.07;;;;;;;;;;5068108;28;20218;-59
2022/07/19 01:08:18;;;;;;;8.10;6.07;;;;;;;;;;5074113;28;20186;-59
2022/07/19 01:10:44;;;;;;;9.35;5.93;;;;;;;;;;5069111;28;20225;-60
2022/07/19 01:13:13;;;;;;;14.77;7.55;;;;;;;;;;5066526;28;20179;-60
2022/07/19 01:15:41;;;;;;;12.60;6.90;;;;;;;;;;5061892;28;20206;-60
2022/07/19 01:18:07;;;;;;;13.07;7.00;;;;;;;;;;5065401;28;20182;-60
2022/07/19 01:20:33;;;;;;;14.25;6.72;;;;;;;;;;5065829;28;20205;-60
2022/07/19 01:23:00;;;;;;;12.00;7.38;;;;;;;;;;5049258;28;20252;-60
2022/07/19 01:25:29;;;;;;;14.95;7.63;;;;;;;;;;5058866;28;20190;-60
2022/07/19 01:27:55;;;;;;;13.25;7.32;;;;;;;;;;5063992;28;20571;-60
2022/07/19 01:30:22;;;;;;;11.30;6.93;;;;;;;;;;5056908;28;20265;-60
2022/07/19 01:32:49;;;;;;;13.18;6.90;;;;;;;;;;5055183;28;20186;-59
2022/07/19 01:35:16;;;;;;;12.38;7.32;;;;;;;;;;5069279;28;20236;-59
2022/07/19 01:37:42;;;;;;;12.30;7.05;;;;;;;;;;5037522;28;20187;-59
2022/07/19 01:40:10;;;;;;;11.15;6.90;;;;;;;;;;5060237;28;20267;-59
2022/07/19 01:42:36;;;;;;;12.57;7.30;;;;;;;;;;5071807;28;20210;-59
2022/07/19 01:45:03;;;;;;;10.50;6.85;;;;;;;;;;5071913;28;20183;-59
2022/07/19 01:47:30;;;;;;;12.65;7.38;;;;;;;;;;5071399;28;20175;-60
2022/07/19 01:49:56;;;;;;;11.93;7.72;;;;;;;;;;5067899;28;20695;-59
2022/07/19 01:52:23;;;;;;;10.38;7.32;;;;;;;;;;5066977;28;20320;-59
2022/07/19 01:54:49;;;;;;;16.08;7.57;;;;;;;;;;5069802;28;20183;-60
2022/07/19 01:57:15;;;;;;;10.00;7.43;;;;;;;;;;5062943;28;20285;-60
2022/07/19 01:59:41;;;;;;;13.52;7.53;;;;;;;;;;5069397;28;20209;-60
2022/07/19 02:02:07;;;;;;;16.63;6.97;;;;;;;;;;5048675;28;20368;-60
2022/07/19 02:04:34;;;;;;;13.00;7.32;;;;;;;;;;5070658;28;20224;-59
2022/07/19 02:07:00;;;;;;;11.77;7.60;;;;;;;;;;5071803;28;20186;-59
2022/07/19 02:09:26;;;;;;;11.52;7.55;;;;;;;;;;5066846;28;20187;-60
2022/07/19 02:11:52;;;;;;;14.77;8.20;;;;;;;;;;5072134;28;20273;-60
2022/07/19 02:14:18;;;;;;;15.13;8.70;;;;;;;;;;5070026;28;20175;-61
2022/07/19 02:16:45;;;;;;;18.40;8.40;;;;;;;;;;5062454;28;20179;-60
2022/07/19 02:19:11;;;;;;;14.48;8.13;;;;;;;;;;5071191;28;20182;-59
2022/07/19 02:21:38;;;;;;;12.68;8.50;;;;;;;;;;5069850;28;20263;-60
2022/07/19 02:24:05;;;;;;;11.95;8.35;;;;;;;;;;5041969;28;20705;-60
2022/07/19 02:26:31;;;;;;;12.13;8.27;;;;;;;;;;5058189;28;22975;-60
2022/07/19 02:28:58;;;;;;;13.18;8.60;;;;;;;;;;5059142;28;20187;-60
2022/07/19 02:31:24;;;;;;;13.88;8.43;;;;;;;;;;5068782;28;20531;-61
2022/07/19 02:33:50;;;;;;;13.10;7.75;;;;;;;;;;5054861;28;20183;-60
2022/07/19 02:36:17;;;;;;;18.27;8.50;;;;;;;;;;5069030;28;20182;-60
2022/07/19 02:38:43;;;;;;;14.75;8.27;;;;;;;;;;5070411;28;20742;-60
2022/07/19 02:41:09;;;;;;;12.13;8.32;;;;;;;;;;5055341;28;20218;-60
2022/07/19 02:43:36;;;;;;;13.10;8.00;;;;;;;;;;5069711;28;20648;-61
2022/07/19 02:46:02;;;;;;;13.70;8.30;;;;;;;;;;5062132;28;20261;-60
2022/07/19 02:48:28;;;;;;;12.40;7.60;;;;;;;;;;5070594;28;20236;-60
2022/07/19 02:50:54;;;;;;;11.75;7.82;;;;;;;;;;5068913;28;20248;-60
2022/07/19 02:53:20;;;;;;;13.48;7.93;;;;;;;;;;5072436;28;20227;-60
2022/07/19 02:55:47;;;;;;;12.48;7.25;;;;;;;;;;5072328;28;20278;-60
2022/07/19 02:58:13;;;;;;;12.63;7.30;;;;;;;;;;5072369;28;20206;-60
2022/07/19 03:00:39;;;;;;;12.20;6.93;;;;;;;;;;5049191;28;20171;-60
2022/07/19 03:05:50;;;;;;;13.05;6.65;;;;;;;;;;5057181;28;20199;-60
2022/07/19 03:08:17;;;;;;;10.00;6.97;;;;;;;;;;5037226;28;20191;-60
2022/07/19 03:10:43;;;;;;;12.90;7.15;;;;;;;;;;5051239;28;20585;-61
2022/07/19 03:13:09;;;;;;;13.55;6.78;;;;;;;;;;5044242;28;20786;-60
2022/07/19 03:15:36;;;;;;;14.10;6.10;;;;;;;;;;5051898;28;20179;-61
2022/07/19 03:18:03;;;;;;;11.02;6.60;;;;;;;;;;5050416;28;20189;-60
2022/07/19 03:20:29;;;;;;;10.40;6.53;;;;;;;;;;5070159;28;20244;-60
2022/07/19 03:22:55;;;;;;;10.07;6.05;;;;;;;;;;5049394;28;20182;-60
2022/07/19 03:25:22;;;;;;;14.45;6.65;;;;;;;;;;5063183;28;20205;-60
2022/07/19 03:27:52;;;;;;;12.45;6.50;;;;;;;;;;5041932;28;20186;-60
2022/07/19 03:30:18;;;;;;;13.80;6.63;;;;;;;;;;5037644;28;20647;-61
2022/07/19 03:32:45;;;;;;;13.77;6.72;;;;;;;;;;5046546;28;20265;-60
2022/07/19 03:35:11;;;;;;;11.27;6.43;;;;;;;;;;5064961;28;20607;-60
2022/07/19 03:37:37;;;;;;;22.23;7.10;;;;;;;;;;5052646;28;20252;-60
2022/07/19 03:40:04;;;;;;;9.80;6.13;;;;;;;;;;5050937;28;20273;-60
2022/07/19 03:42:30;;;;;;;10.00;6.57;;;;;;;;;;5065559;28;20225;-60
2022/07/19 03:44:56;;;;;;;10.70;6.13;;;;;;;;;;5071274;28;20186;-60
2022/07/19 03:47:23;;;;;;;10.23;6.50;;;;;;;;;;5069755;28;20182;-60
2022/07/19 03:49:49;;;;;;;10.00;6.03;;;;;;;;;;5060318;28;20248;-60
2022/07/19 03:52:15;;;;;;;11.02;5.78;;;;;;;;;;5052944;28;20193;-60
2022/07/19 03:54:42;;;;;;;8.85;6.20;;;;;;;;;;5045782;28;20651;-60
2022/07/19 03:57:08;;;;;;;10.50;6.68;;;;;;;;;;5071486;28;20187;-60
2022/07/19 03:59:34;;;;;;;10.73;6.82;;;;;;;;;;5071709;28;20253;-59
2022/07/19 04:02:00;;;;;;;9.30;6.70;;;;;;;;;;5055530;28;20211;-60
2022/07/19 04:04:26;;;;;;;11.88;6.75;;;;;;;;;;5065981;28;20182;-60
2022/07/19 04:06:52;;;;;;;10.35;6.32;;;;;;;;;;5052890;28;20182;-60
2022/07/19 04:09:18;;;;;;;12.18;6.82;;;;;;;;;;5056589;28;20189;-60
2022/07/19 04:11:45;;;;;;;10.10;6.60;;;;;;;;;;5049864;28;20273;-61
2022/07/19 04:14:11;;;;;;;10.05;7.13;;;;;;;;;;5071389;28;20631;-61
2022/07/19 04:16:37;;;;;;;13.02;7.30;;;;;;;;;;5068188;28;20233;-60
2022/07/19 04:19:03;;;;;;;12.82;7.00;;;;;;;;;;5070174;28;20218;-60
2022/07/19 04:21:29;;;;;;;16.13;7.90;;;;;;;;;;5055089;28;20222;-60
2022/07/19 04:23:56;;;;;;;12.65;6.88;;;;;;;;;;5068718;28;20199;-60
2022/07/19 04:26:22;;;;;;;12.80;7.35;;;;;;;;;;5053910;28;20187;-60
2022/07/19 04:28:48;;;;;;;14.55;7.18;;;;;;;;;;5035016;28;20186;-59
2022/07/19 04:31:17;;;;;;;12.57;7.57;;;;;;;;;;5055024;28;20429;-60
2022/07/19 04:33:43;;;;;;;13.98;6.72;;;;;;;;;;5052080;28;20244;-60
2022/07/19 04:36:09;;;;;;;12.85;6.53;;;;;;;;;;5050582;28;20187;-60
2022/07/19 04:38:35;;;;;;;16.73;7.15;;;;;;;;;;5056773;28;20252;-59
2022/07/19 04:41:01;;;;;;;11.02;7.18;;;;;;;;;;5035002;28;20211;-59
2022/07/19 04:43:28;;;;;;;12.77;7.50;;;;;;;;;;5052441;28;20225;-60
2022/07/19 04:45:54;;;;;;;11.27;7.00;;;;;;;;;;5069252;28;20198;-61
2022/07/19 04:48:21;;;;;;;10.45;6.82;;;;;;;;;;5070131;28;20186;-59
2022/07/19 04:50:47;;;;;;;12.05;7.30;;;;;;;;;;5051940;28;20222;-60
2022/07/19 04:53:13;;;;;;;13.38;7.18;;;;;;;;;;5047884;28;20179;-59
2022/07/19 04:55:39;;;;;;;16.75;7.10;;;;;;;;;;5070578;28;20189;-60
2022/07/19 04:58:05;;;;;;;12.07;7.18;;;;;;;;;;5065601;28;20234;-59
2022/07/19 05:00:32;;;;;;;13.02;7.50;;;;;;;;;;5034626;28;20176;-60
2022/07/19 05:02:58;;;;;;;12.25;7.35;;;;;;;;;;5045273;28;20199;-60
2022/07/19 05:05:24;;;;;;;11.15;6.93;;;;;;;;;;5039971;28;20183;-59
2022/07/19 05:07:50;;;;;;;15.52;6.80;;;;;;;;;;5050260;28;20219;-59
2022/07/19 05:10:16;;;;;;;14.68;7.00;;;;;;;;;;5063771;28;20257;-60
2022/07/19 05:12:43;;;;;;;13.07;7.03;;;;;;;;;;5070650;28;20194;-60
2022/07/19 05:15:09;;;;;;;9.75;6.60;;;;;;;;;;5063468;28;20186;-59
2022/07/19 05:17:36;;;;;;;11.15;6.75;;;;;;;;;;5058979;28;20209;-59
2022/07/19 05:20:03;;;;;;;12.95;9.77;;;;;;;;;;5066275;28;20174;-59
2022/07/19 05:22:29;;;;;;;14.85;7.53;;;;;;;;;;5035635;28;20620;-59
2022/07/19 05:24:55;;;;;;;15.60;7.25;;;;;;;;;;5023297;28;20274;-59
2022/07/19 05:27:22;;;;;;;15.98;7.03;;;;;;;;;;5056462;28;20655;-59
2022/07/19 05:29:49;;;;;;;12.45;6.63;;;;;;;;;;5059972;28;20189;-59
2022/07/19 05:32:16;;;;;;;11.85;6.97;;;;;;;;;;5065637;28;20191;-59
2022/07/19 05:34:42;;;;;;;12.48;7.10;;;;;;;;;;5063520;28;20182;-59
2022/07/19 05:37:08;;;;;;;11.68;6.72;;;;;;;;;;5058572;28;20216;-60
2022/07/19 05:39:34;;;;;;;13.80;6.97;;;;;;;;;;5058092;28;20186;-59
2022/07/19 05:42:00;;;;;;;10.25;6.55;;;;;;;;;;5043017;28;20226;-58
2022/07/19 05:44:26;;;;;;;12.20;6.05;;;;;;;;;;5055942;28;20183;-59
2022/07/19 05:46:52;;;;;;;10.75;6.68;;;;;;;;;;5064791;28;20182;-59
2022/07/19 05:49:19;;;;;;;13.65;6.20;;;;;;;;;;5068467;28;20283;-59
2022/07/19 05:51:45;;;;;;;14.45;6.75;;;;;;;;;;5049959;28;20186;-58
2022/07/19 05:54:11;;;;;;;13.73;6.03;;;;;;;;;;5053499;28;20604;-59
2022/07/19 05:56:37;;;;;;;15.50;6.88;;;;;;;;;;5061207;28;20180;-58
2022/07/19 05:59:03;;;;;;;13.93;7.82;;;;;;;;;;5073026;28;20179;-60
2022/07/19 06:01:30;;;;;;;20.27;8.90;;;;;;;;;;5066991;28;20219;-59
2022/07/19 06:03:57;;;;;;;13.40;7.00;;;;;;;;;;5058107;28;20175;-60
2022/07/19 06:06:24;;;;;;;10.45;5.40;;;;;;;;;;5060541;28;20273;-61
2022/07/19 06:08:50;;;;;;;13.73;6.07;;;;;;;;;;5048376;28;20187;-59
2022/07/19 06:11:17;;;;;;;18.92;6.80;;;;;;;;;;5046289;28;20187;-59
2022/07/19 06:13:44;;;;;;;12.82;6.10;;;;;;;;;;5058809;28;20529;-59
2022/07/19 06:16:11;;;;;;;13.93;6.57;;;;;;;;;;5053883;28;20186;-58
2022/07/19 06:18:38;;;;;;;13.23;6.70;;;;;;;;;;5055074;28;20179;-61
2022/07/19 06:21:07;;;;;;;12.32;6.95;;;;;;;;;;5071787;28;20214;-62
2022/07/19 06:23:33;;;;;;;13.82;7.90;;;;;;;;;;5072758;28;20174;-59
2022/07/19 06:25:59;;;;;;;17.90;7.40;;;;;;;;;;5072174;28;20195;-59
2022/07/19 06:28:26;;;;;;;13.52;6.20;;;;;;;;;;5066478;28;20171;-60
2022/07/19 06:30:53;;;;;;;12.65;6.00;;;;;;;;;;5069830;28;20236;-60
2022/07/19 06:33:19;;;;;;;13.13;6.47;;;;;;;;;;5073789;28;20636;-59
2022/07/19 06:35:45;;;;;;;16.27;6.47;;;;;;;;;;5044818;28;20186;-59
2022/07/19 06:38:12;;;;;;;9.05;6.10;;;;;;;;;;5072850;28;20178;-59
2022/07/19 06:40:39;;;;;;;9.32;5.75;;;;;;;;;;5040417;28;20197;-59
2022/07/19 06:43:05;;;;;;;8.60;5.95;;;;;;;;;;5054215;28;20191;-59
2022/07/19 06:45:31;;;;;;;11.80;5.85;;;;;;;;;;5036775;28;20267;-59
2022/07/19 06:47:57;;;;;;;11.18;6.00;;;;;;;;;;5065002;28;20187;-59
2022/07/19 06:50:23;;;;;;;12.90;5.45;;;;;;;;;;5065681;28;20226;-59
2022/07/19 06:52:49;;;;;;;8.82;5.40;;;;;;;;;;5069467;28;20191;-60
2022/07/19 06:55:16;;;;;;;9.63;5.07;;;;;;;;;;5066625;28;20558;-60
2022/07/19 06:57:42;;;;;;;11.55;4.65;;;;;;;;;;5063647;28;20550;-61
2022/07/19 07:00:09;;;;;;;8.52;4.60;;;;;;;;;;5063544;28;20269;-59
2022/07/19 07:02:39;;;;;;;11.88;5.07;;;;;;;;;;5054233;28;20242;-60
2022/07/19 07:05:06;;;;;;;10.25;5.07;;;;;;;;;;5036522;28;20663;-59
2022/07/19 07:07:32;;;;;;;10.30;4.65;;;;;;;;;;5070244;28;20190;-60
2022/07/19 07:10:00;;;;;;;14.10;5.43;;;;;;;;;;5033497;28;20197;-59
2022/07/19 07:12:28;;;;;;;9.00;4.63;;;;;;;;;;5069464;28;20277;-60
2022/07/19 07:14:54;;;;;;;7.78;4.57;;;;;;;;;;5071169;28;20190;-59
2022/07/19 07:17:21;;;;;;;12.30;5.00;;;;;;;;;;5055533;28;20187;-60
2022/07/19 07:19:47;;;;;;;9.93;4.57;;;;;;;;;;5060314;28;20187;-61
2022/07/19 07:22:13;;;;;;;8.15;4.30;;;;;;;;;;5065104;28;20579;-60
2022/07/19 07:24:39;;;;;;;9.60;4.90;;;;;;;;;;5052834;28;20183;-60
2022/07/19 07:27:05;;;;;;;10.85;4.05;;;;;;;;;;5058214;28;20240;-60
2022/07/19 07:29:31;;;;;;;8.32;4.22;;;;;;;;;;5061866;28;20682;-60
2022/07/19 07:31:58;;;;;;;14.88;4.63;;;;;;;;;;5062237;28;20175;-60
2022/07/19 07:34:24;;;;;;;9.48;4.20;;;;;;;;;;5067440;28;20179;-60
2022/07/19 07:36:50;;;;;;;10.52;4.80;;;;;;;;;;5048082;28;20296;-60
2022/07/19 07:39:17;;;;;;;15.40;4.57;;;;;;;;;;5070628;28;20190;-61
2022/07/19 07:41:43;;;;;;;9.75;4.03;;;;;;;;;;5035531;28;20271;-62
2022/07/19 07:44:09;;;;;;;14.48;4.22;;;;;;;;;;5055535;28;20188;-60
2022/07/19 07:46:36;;;;;;;10.77;4.40;;;;;;;;;;5060153;28;20261;-61
2022/07/19 07:49:02;;;;;;;11.07;3.78;;;;;;;;;;5048131;28;20253;-60
2022/07/19 07:51:28;;;;;;;8.75;3.40;;;;;;;;;;5069447;28;20194;-60
2022/07/19 07:53:54;;;;;;;11.18;3.88;;;;;;;;;;5067078;28;20189;-60
2022/07/19 07:56:21;;;;;;;10.68;4.15;;;;;;;;;;5054789;28;20265;-60
2022/07/19 07:58:47;;;;;;;9.52;3.88;;;;;;;;;;5053176;28;20187;-61
2022/07/19 08:01:13;;;;;;;7.40;3.63;;;;;;;;;;5054316;28;20220;-60
2022/07/19 08:03:39;;;;;;;8.25;3.53;;;;;;;;;;5053115;28;20214;-60
2022/07/19 08:06:05;;;;;;;9.95;4.10;;;;;;;;;;5066035;28;20269;-60
2022/07/19 08:08:31;;;;;;;11.90;4.22;;;;;;;;;;5054040;28;20194;-60
2022/07/19 08:10:58;;;;;;;8.93;4.03;;;;;;;;;;5070079;28;20281;-60
2022/07/19 08:13:24;;;;;;;8.90;3.90;;;;;;;;;;5064554;28;20207;-60
2022/07/19 08:15:50;;;;;;;8.07;4.03;;;;;;;;;;5058492;28;20304;-60
2022/07/19 08:18:17;;;;;;;15.60;4.13;;;;;;;;;;5053502;28;20261;-60
2022/07/19 08:20:43;;;;;;;9.65;4.10;;;;;;;;;;5048235;28;20190;-59
2022/07/19 08:23:09;;;;;;;8.45;4.10;;;;;;;;;;5050230;28;20202;-59
2022/07/19 08:25:36;;;;;;;11.82;3.80;;;;;;;;;;5042782;28;20236;-59
2022/07/19 08:28:03;;;;;;;11.60;3.70;;;;;;;;;;5052220;28;20179;-58
2022/07/19 08:30:30;;;;;;;15.98;4.28;;;;;;;;;;5053365;28;20260;-59
2022/07/19 08:32:56;;;;;;;14.27;3.78;;;;;;;;;;5071374;28;20273;-59
2022/07/19 08:35:22;;;;;;;12.75;3.83;;;;;;;;;;5070498;28;20186;-61
2022/07/19 08:37:48;;;;;;;6.78;3.75;;;;;;;;;;5061467;28;20189;-59
2022/07/19 08:40:14;;;;;;;10.85;3.80;;;;;;;;;;5066383;28;20186;-59
2022/07/19 08:42:42;;;;;;;9.27;3.42;;;;;;;;;;5053085;28;20322;-60
2022/07/19 08:45:10;;;;;;;10.23;3.90;;;;;;;;;;5068599;28;20213;-59
2022/07/19 08:47:37;;;;;;;12.38;3.97;;;;;;;;;;5049450;28;20628;-59
2022/07/19 08:50:05;;;;;;;7.90;3.60;;;;;;;;;;5066791;28;20214;-60
2022/07/19 08:52:35;;;;;;;11.98;3.75;;;;;;;;;;5065967;28;20194;-59
2022/07/19 08:55:01;;;;;;;7.13;3.38;;;;;;;;;;5050428;28;20672;-60
2022/07/19 09:00:12;;;;;;;6.80;3.35;;;;;;;;;;5064388;28;20182;-59
2022/07/19 09:02:39;;;;;;;14.18;3.60;;;;;;;;;;5065863;28;20210;-60
2022/07/19 09:05:10;;;;;;;10.35;3.53;;;;;;;;;;5066265;28;20189;-59
2022/07/19 09:07:37;;;;;;;9.10;3.42;;;;;;;;;;5071360;28;20182;-60
2022/07/19 09:10:19;;;;;;;9.07;3.60;;;;;;;;;;5066165;28;20178;-59
2022/07/19 09:12:59;;;;;;;15.65;3.95;;;;;;;;;;5059522;28;20935;-60
2022/07/19 09:15:45;;;;;;;12.57;4.07;;;;;;;;;;5067917;28;20209;-60
2022/07/19 09:18:14;;;;;;;10.07;3.47;;;;;;;;;;5052217;28;20174;-59
2022/07/19 09:20:40;;;;;;;11.50;3.03;;;;;;;;;;5071504;28;20181;-59
2022/07/19 09:23:08;;;;;;;12.77;3.25;;;;;;;;;;5060783;28;20197;-59
2022/07/19 09:25:39;;;;;;;12.25;3.40;;;;;;;;;;5053490;28;20602;-59
2022/07/19 09:28:06;;;;;;;16.25;3.20;;;;;;;;;;5040339;28;20572;-59
2022/07/19 09:30:42;;;;;;;11.25;3.30;;;;;;;;;;5071189;28;20190;-60
2022/07/19 09:33:09;;;;;;;5.38;3.20;;;;;;;;;;5067085;28;20186;-59
2022/07/19 09:35:37;;;;;;;8.70;3.78;;;;;;;;;;5067264;28;20182;-60
2022/07/19 09:38:16;;;;;;;12.15;3.22;;;;;;;;;;5053872;28;20269;-60
2022/07/19 09:40:42;;;;;;;9.48;3.15;;;;;;;;;;5069639;28;20206;-60
2022/07/19 09:43:09;;;;;;;13.95;3.17;;;;;;;;;;5069092;28;20186;-60
2022/07/19 09:45:35;;;;;;;5.57;2.88;;;;;;;;;;5057003;28;20562;-60
2022/07/19 09:48:03;;;;;;;8.20;3.15;;;;;;;;;;5049864;28;20267;-60
2022/07/19 09:50:30;;;;;;;13.25;3.22;;;;;;;;;;5068049;28;20590;-60
2022/07/19 09:52:59;;;;;;;11.02;3.10;;;;;;;;;;5073726;28;20190;-60
2022/07/19 09:55:25;;;;;;;14.48;3.05;;;;;;;;;;5072634;28;20229;-60
2022/07/19 09:57:51;;;;;;;13.50;3.45;;;;;;;;;;5074624;28;20192;-60
2022/07/19 10:00:19;;;;;;;10.52;2.90;;;;;;;;;;5038446;28;20190;-60
2022/07/19 10:02:51;;;;;;;10.32;3.00;;;;;;;;;;5045417;28;20679;-60
2022/07/19 10:05:17;;;;;;;11.32;2.72;;;;;;;;;;5055592;28;20189;-60
2022/07/19 10:07:43;;;;;;;16.70;3.22;;;;;;;;;;5059672;28;20179;-60
2022/07/19 10:10:11;;;;;;;16.17;3.00;;;;;;;;;;5047556;28;20277;-60
2022/07/19 10:12:38;;;;;;;12.43;3.30;;;;;;;;;;5074137;28;20235;-60
2022/07/19 10:15:05;;;;;;;12.38;2.63;;;;;;;;;;5071189;28;20196;-59
2022/07/19 10:17:34;;;;;;;12.85;2.47;;;;;;;;;;5060483;28;20198;-60
2022/07/19 10:20:02;;;;;;;9.52;2.80;;;;;;;;;;5054404;28;20186;-60
2022/07/19 10:22:28;;;;;;;11.38;2.97;;;;;;;;;;5066147;28;20305;-60
2022/07/19 10:24:57;;;;;;;11.15;3.60;;;;;;;;;;5042976;28;20187;-59
2022/07/19 10:27:24;;;;;;;17.48;3.15;;;;;;;;;;5054660;28;20607;-59
2022/07/19 10:29:51;;;;;;;11.63;2.88;;;;;;;;;;5062776;28;20398;-60
2022/07/19 10:32:17;;;;;;;11.57;2.63;;;;;;;;;;5052132;28;20190;-60
2022/07/19 10:34:47;;;;;;;12.70;2.97;;;;;;;;;;5061599;28;20190;-60
2022/07/19 10:37:14;;;;;;;5.20;2.63;;;;;;;;;;5073348;28;20231;-60
2022/07/19 10:39:41;;;;;;;14.90;3.60;;;;;;;;;;5071463;28;20253;-59
2022/07/19 10:42:09;;;;;;;18.50;2.90;;;;;;;;;;5063267;28;20217;-60
2022/07/19 10:45:05;;;;;;;8.40;2.90;;;;;;;;;;5071221;28;20189;-60
2022/07/19 10:47:39;;;;;;;7.00;2.80;;;;;;;;;;5066106;28;20185;-60
2022/07/19 10:50:09;;;;;;;8.82;3.00;;;;;;;;;;5037048;28;20222;-60
2022/07/19 10:52:37;;;;;;;9.13;2.78;;;;;;;;;;5068077;28;20186;-60
2022/07/19 10:55:24;;;;;;;9.93;2.88;;;;;;;;;;5066558;28;20182;-59
2022/07/19 10:58:08;;;;;;;11.40;3.03;;;;;;;;;;5055852;28;20741;-59
2022/07/19 11:00:47;;;;;;;14.57;3.25;;;;;;;;;;5069474;28;20182;-60
2022/07/19 11:03:34;;;;;;;7.70;3.00;;;;;;;;;;5056282;28;20247;-60
2022/07/19 11:06:02;;;;;;;11.32;3.13;;;;;;;;;;5072082;28;20265;-60
2022/07/19 11:08:36;;;;;;;12.80;3.17;;;;;;;;;;5053894;28;20178;-59
2022/07/19 11:11:22;;;;;;;12.20;2.67;;;;;;;;;;5067191;28;20270;-59
2022/07/19 11:13:49;;;;;;;8.25;2.78;;;;;;;;;;5065380;28;20222;-61
2022/07/19 11:16:16;;;;;;;8.25;2.67;;;;;;;;;;5034754;28;20209;-61
2022/07/19 11:18:43;;;;;;;11.43;2.67;;;;;;;;;;5040183;28;20537;-60
2022/07/19 11:21:10;;;;;;;11.02;3.70;;;;;;;;;;5055580;28;20214;-61
2022/07/19 11:23:39;;;;;;;9.60;2.47;;;;;;;;;;5072629;28;20686;-60
2022/07/19 11:26:20;;;;;;;5.95;2.72;;;;;;;;;;5069698;28;20178;-60
2022/07/19 11:28:48;;;;;;;4.38;2.42;;;;;;;;;;5053662;28;20212;-61
2022/07/19 11:31:15;;;;;;;4.43;2.30;;;;;;;;;;5050066;28;20197;-60
2022/07/19 11:33:42;;;;;;;5.10;2.63;;;;;;;;;;5046132;28;20194;-60
2022/07/19 11:36:09;;;;;;;10.77;2.83;;;;;;;;;;5071604;28;20186;-60
2022/07/19 11:38:40;;;;;;;9.40;2.30;;;;;;;;;;5072061;28;20178;-60
2022/07/19 11:41:12;;;;;;;12.55;2.67;;;;;;;;;;5071371;28;20251;-60
2022/07/19 11:43:39;;;;;;;9.48;2.47;;;;;;;;;;5034984;28;20261;-60
2022/07/19 11:46:05;;;;;;;7.15;2.63;;;;;;;;;;5071976;28;20223;-60
2022/07/19 11:48:31;;;;;;;8.43;2.50;;;;;;;;;;5057236;28;20669;-60
2022/07/19 11:50:59;;;;;;;4.38;2.40;;;;;;;;;;5066272;28;20275;-60
2022/07/19 11:53:25;;;;;;;9.05;2.38;;;;;;;;;;5052722;28;20190;-59
2022/07/19 11:55:52;;;;;;;6.65;2.30;;;;;;;;;;5069889;28;20190;-59
2022/07/19 11:58:19;;;;;;;4.85;2.42;;;;;;;;;;5051544;28;20212;-62
2022/07/19 12:00:45;;;;;;;5.82;2.00;;;;;;;;;;5069499;28;20190;-60
2022/07/19 12:03:18;;;;;;;6.90;2.30;;;;;;;;;;5048398;28;20183;-60
2022/07/19 12:05:58;;;;;;;8.57;2.55;;;;;;;;;;5068231;28;20742;-60
2022/07/19 12:08:42;;;;;;;10.23;2.10;;;;;;;;;;5050981;28;20606;-60
2022/07/19 12:11:21;;;;;;;8.98;2.40;;;;;;;;;;5068527;28;20264;-60
2022/07/19 12:13:47;;;;;;;5.03;2.40;;;;;;;;;;5062682;28;20275;-61
2022/07/19 12:16:14;;;;;;;13.68;2.20;;;;;;;;;;5059965;28;20270;-60
2022/07/19 12:18:48;;;;;;;8.77;2.42;;;;;;;;;;5073074;28;20643;-60
2022/07/19 12:21:18;;;;;;;5.97;2.70;;;;;;;;;;5057869;28;20844;-60
2022/07/19 12:24:04;;;;;;;7.32;2.78;;;;;;;;;;5052176;28;20182;-61
2022/07/19 12:26:30;;;;;;;12.00;2.45;;;;;;;;;;5035202;28;20186;-60
2022/07/19 12:28:56;;;;;;;5.93;2.42;;;;;;;;;;5070188;28;20241;-61
2022/07/19 12:31:22;;;;;;;9.40;2.45;;;;;;;;;;5068722;28;20190;-61
2022/07/19 12:33:58;;;;;;;7.75;2.70;;;;;;;;;;5052610;28;20187;-60
2022/07/19 12:36:37;;;;;;;7.82;1.90;;;;;;;;;;5052676;28;20178;-59
2022/07/19 12:39:03;;;;;;;6.63;2.20;;;;;;;;;;5071089;28;20185;-60
2022/07/19 12:41:30;;;;;;;6.13;2.20;;;;;;;;;;5070349;28;20213;-59
2022/07/19 12:43:57;;;;;;;5.85;2.08;;;;;;;;;;5061426;28;20174;-60
2022/07/19 12:46:24;;;;;;;6.05;2.13;;;;;;;;;;5053845;28;20178;-60
2022/07/19 12:48:50;;;;;;;9.30;2.22;;;;;;;;;;5071066;28;20178;-59
2022/07/19 12:51:16;;;;;;;11.80;2.30;;;;;;;;;;5053735;28;20190;-60
2022/07/19 12:53:42;;;;;;;7.30;2.50;;;;;;;;;;5068337;28;20186;-60
2022/07/19 12:56:08;;;;;;;10.20;3.13;;;;;;;;;;5054557;28;20285;-60
2022/07/19 13:01:19;;;;;;;8.82;2.13;;;;;;;;;;5057472;28;20202;-60
2022/07/19 13:03:47;;;;;;;10.05;2.63;;;;;;;;;;5022066;28;20537;-60
2022/07/19 13:06:13;;;;;;;7.82;2.10;;;;;;;;;;5048365;28;20205;-60
2022/07/19 13:08:39;;;;;;;8.73;2.53;;;;;;;;;;5059662;28;20236;-60
2022/07/19 13:11:05;;;;;;;8.95;2.83;;;;;;;;;;5060443;28;20190;-60
2022/07/19 13:13:32;;;;;;;5.15;2.25;;;;;;;;;;5057162;28;20678;-61
2022/07/19 13:15:58;;;;;;;5.68;2.13;;;;;;;;;;5074020;28;20218;-60
2022/07/19 13:18:24;;;;;;;5.88;1.95;;;;;;;;;;5067748;28;20183;-60
2022/07/19 13:20:50;;;;;;;3.45;2.05;;;;;;;;;;5049798;28;20238;-61
2022/07/19 13:23:16;;;;;;;8.32;2.30;;;;;;;;;;5038098;28;20648;-61
2022/07/19 13:25:42;;;;;;;10.75;2.58;;;;;;;;;;5071367;28;20598;-61
2022/07/19 13:28:08;;;;;;;7.03;2.42;;;;;;;;;;5055670;28;20194;-61
2022/07/19 13:30:35;;;;;;;11.68;2.60;;;;;;;;;;5057811;28;20178;-61
2022/07/19 13:33:01;;;;;;;7.55;2.85;;;;;;;;;;5072430;28;20185;-61
2022/07/19 13:35:30;;;;;;;10.25;2.72;;;;;;;;;;5037508;28;20730;-60
2022/07/19 13:37:56;;;;;;;6.60;2.63;;;;;;;;;;5062883;28;20177;-61
2022/07/19 13:40:22;;;;;;;7.22;2.58;;;;;;;;;;5074915;28;20205;-60
2022/07/19 13:42:48;;;;;;;6.35;2.67;;;;;;;;;;5072541;28;20214;-60
2022/07/19 13:45:15;;;;;;;9.93;3.10;;;;;;;;;;5047672;28;20232;-62
2022/07/19 13:47:41;;;;;;;7.40;2.58;;;;;;;;;;5070278;28;20189;-60
2022/07/19 13:50:08;;;;;;;7.63;2.75;;;;;;;;;;5069178;28;20227;-60
2022/07/19 13:52:35;;;;;;;7.72;2.20;;;;;;;;;;5069696;28;20226;-61
2022/07/19 13:55:01;;;;;;;8.63;2.60;;;;;;;;;;5046705;28;20188;-60
2022/07/19 13:57:27;;;;;;;8.45;2.50;;;;;;;;;;5073882;28;20186;-60
2022/07/19 13:59:53;;;;;;;8.98;2.63;;;;;;;;;;5038008;28;20186;-60
2022/07/19 14:02:20;;;;;;;9.23;2.47;;;;;;;;;;5054861;28;20600;-60
2022/07/19 14:04:46;;;;;;;7.40;2.30;;;;;;;;;;5073022;28;20229;-60
2022/07/19 14:07:12;;;;;;;7.40;2.67;;;;;;;;;;5050896;28;20179;-61
2022/07/19 14:09:38;;;;;;;8.55;3.00;;;;;;;;;;5067304;28;20212;-60
2022/07/19 14:12:05;;;;;;;10.88;2.47;;;;;;;;;;5059846;28;20195;-61
2022/07/19 14:14:31;;;;;;;6.20;2.00;;;;;;;;;;5063556;28;20194;-59
2022/07/19 14:16:58;;;;;;;7.93;2.35;;;;;;;;;;5044417;28;20189;-61
2022/07/19 14:19:24;;;;;;;6.45;2.63;;;;;;;;;;5059844;28;20554;-60
2022/07/19 14:21:50;;;;;;;13.50;2.38;;;;;;;;;;5066598;28;20216;-60
2022/07/19 14:24:16;;;;;;;11.05;2.40;;;;;;;;;;5065472;28;20182;-60
2022/07/19 14:26:42;;;;;;;5.85;2.17;;;;;;;;;;5055111;28;20643;-60
2022/07/19 14:29:09;;;;;;;3.47;2.00;;;;;;;;;;5054392;28;20181;-60
2022/07/19 14:31:35;;;;;;;8.52;2.28;;;;;;;;;;5054863;28;20174;-60
2022/07/19 14:34:01;;;;;;;9.27;2.92;;;;;;;;;;5070697;28;20209;-61
2022/07/19 14:36:27;;;;;;;13.93;2.47;;;;;;;;;;5059207;28;20186;-61
2022/07/19 14:38:54;;;;;;;7.35;2.45;;;;;;;;;;5064283;28;20178;-61
2022/07/19 14:41:20;;;;;;;8.75;2.42;;;;;;;;;;5039103;28;20237;-60
2022/07/19 14:43:46;;;;;;;6.43;2.60;;;;;;;;;;5068348;28;20196;-60